Terminal Aerodrome Forecast
Issued by NWS Corpus Christi, TX

Home | Current Version | Previous Version | Text Only | Print | Product List | Glossary On
Versions: 1 2 3 4 5 6 7 8 9 10 11 12 13 14 15 16 17 18
000
FTUS44 KCRP 201739
TAFVCT
TAF
KVCT 201739Z 2018/2118 18005KT 5SM BR OVC003
     FM201900 16006KT P6SM SCT015
     FM210100 15006KT 3SM BR OVC006
     FM210500 15007KT 3SM BR BKN003 OVC006
     FM211500 15011KT 6SM BR BKN008 OVC015=

USA.gov is the U.S. government's official web portal to all federal, state and local government web resources and services.